KASL/ASL METAR and TAF weather

Enter ICAO airport designator
Station Type Date Time Source
KASL METAR 2020/12/06 00:15 UTC NOAA

KASL 060015Z AUTO 00000KT 10SM CLR 07/05 A3018 RMK AO1 T00720045


Station Type Date Time Source
KASL Decoded METAR 2020/12/06 00:15 UTC NOAA

Station name not available
Dec 05, 2020 - 07:15 PM EST / 2020.12.06 0015 UTC
Wind: Calm:0
Visibility: 10 mile(s):0
Sky conditions: clear
Temperature: 45.0 F (7.2 C)
Dew Point: 40.1 F (4.5 C)
Relative Humidity: 82%
Pressure (altimeter): 30.18 in. Hg (1022 hPa)
ob: KASL 060015Z AUTO 00000KT 10SM CLR 07/05 A3018 RMK AO1 T00720045
cycle: 0

Station Type Date Time Source
KASL TAF UTC NOAA

Error!

Example: see airport list